sensor_id;sensor_type;location;lat;lon;timestamp;P1;durP1;ratioP1;P2;durP2;ratioP2
23768;SDS011;12064;50.890;5.424;2023-02-13T00:02:33;4.88;;;4.47;;
23768;SDS011;12064;50.890;5.424;2023-02-13T00:11:24;4.85;;;4.45;;
23768;SDS011;12064;50.890;5.424;2023-02-13T00:20:14;4.80;;;4.40;;
23768;SDS011;12064;50.890;5.424;2023-02-13T00:29:08;4.80;;;4.40;;
23768;SDS011;12064;50.890;5.424;2023-02-13T00:37:58;4.80;;;4.40;;
23768;SDS011;12064;50.890;5.424;2023-02-13T00:46:49;4.60;;;4.20;;
23768;SDS011;12064;50.890;5.424;2023-02-13T00:55:40;4.70;;;4.30;;
23768;SDS011;12064;50.890;5.424;2023-02-13T01:04:33;4.90;;;4.50;;
23768;SDS011;12064;50.890;5.424;2023-02-13T01:13:24;4.90;;;4.50;;
23768;SDS011;12064;50.890;5.424;2023-02-13T01:22:15;5.20;;;4.72;;
23768;SDS011;12064;50.890;5.424;2023-02-13T01:31:07;4.83;;;4.43;;
23768;SDS011;12064;50.890;5.424;2023-02-13T01:39:58;4.43;;;4.13;;
23768;SDS011;12064;50.890;5.424;2023-02-13T01:48:53;4.75;;;4.30;;
23768;SDS011;12064;50.890;5.424;2023-02-13T01:57:50;4.85;;;4.45;;
23768;SDS011;12064;50.890;5.424;2023-02-13T02:15:49;4.40;;;4.05;;
23768;SDS011;12064;50.890;5.424;2023-02-13T02:43:43;4.35;;;3.95;;
23768;SDS011;12064;50.890;5.424;2023-02-13T03:02:03;4.53;;;4.13;;
23768;SDS011;12064;50.890;5.424;2023-02-13T03:11:15;4.43;;;4.13;;
23768;SDS011;12064;50.890;5.424;2023-02-13T03:20:47;4.30;;;3.90;;
23768;SDS011;12064;50.890;5.424;2023-02-13T03:30:38;3.90;;;3.60;;
23768;SDS011;12064;50.890;5.424;2023-02-13T03:48:34;4.15;;;3.85;;
23768;SDS011;12064;50.890;5.424;2023-02-13T03:57:48;3.75;;;3.45;;
23768;SDS011;12064;50.890;5.424;2023-02-13T04:07:10;4.00;;;3.70;;
23768;SDS011;12064;50.890;5.424;2023-02-13T04:16:23;3.97;;;3.60;;
23768;SDS011;12064;50.890;5.424;2023-02-13T04:25:22;3.65;;;3.45;;
23768;SDS011;12064;50.890;5.424;2023-02-13T04:34:12;3.85;;;3.55;;
23768;SDS011;12064;50.890;5.424;2023-02-13T04:43:03;3.85;;;3.55;;
23768;SDS011;12064;50.890;5.424;2023-02-13T04:51:54;3.70;;;3.40;;
23768;SDS011;12064;50.890;5.424;2023-02-13T05:00:47;3.30;;;3.10;;
23768;SDS011;12064;50.890;5.424;2023-02-13T05:09:39;3.50;;;3.20;;
23768;SDS011;12064;50.890;5.424;2023-02-13T05:18:30;3.30;;;3.10;;
23768;SDS011;12064;50.890;5.424;2023-02-13T05:27:22;3.43;;;3.13;;
23768;SDS011;12064;50.890;5.424;2023-02-13T05:45:13;3.50;;;3.25;;
23768;SDS011;12064;50.890;5.424;2023-02-13T05:54:06;3.05;;;2.85;;
23768;SDS011;12064;50.890;5.424;2023-02-13T06:03:00;2.90;;;2.70;;
23768;SDS011;12064;50.890;5.424;2023-02-13T06:11:50;3.03;;;2.83;;
23768;SDS011;12064;50.890;5.424;2023-02-13T06:29:36;3.10;;;2.90;;
23768;SDS011;12064;50.890;5.424;2023-02-13T06:38:27;2.88;;;2.67;;
23768;SDS011;12064;50.890;5.424;2023-02-13T06:47:19;3.00;;;2.80;;
23768;SDS011;12064;50.890;5.424;2023-02-13T06:56:11;3.00;;;2.80;;
23768;SDS011;12064;50.890;5.424;2023-02-13T07:05:07;3.28;;;2.97;;
23768;SDS011;12064;50.890;5.424;2023-02-13T07:14:00;3.22;;;2.92;;
23768;SDS011;12064;50.890;5.424;2023-02-13T07:22:51;3.13;;;2.93;;
23768;SDS011;12064;50.890;5.424;2023-02-13T07:31:42;3.47;;;3.17;;
23768;SDS011;12064;50.890;5.424;2023-02-13T07:40:33;4.03;;;3.13;;
23768;SDS011;12064;50.890;5.424;2023-02-13T07:49:24;4.20;;;3.20;;
23768;SDS011;12064;50.890;5.424;2023-02-13T07:58:14;3.10;;;2.90;;
23768;SDS011;12064;50.890;5.424;2023-02-13T08:07:06;3.33;;;3.03;;
23768;SDS011;12064;50.890;5.424;2023-02-13T08:15:57;3.05;;;2.72;;
23768;SDS011;12064;50.890;5.424;2023-02-13T08:24:47;3.40;;;3.10;;
23768;SDS011;12064;50.890;5.424;2023-02-13T08:33:39;4.40;;;3.20;;
23768;SDS011;12064;50.890;5.424;2023-02-13T08:42:32;4.55;;;2.80;;
23768;SDS011;12064;50.890;5.424;2023-02-13T08:51:24;3.73;;;3.17;;
23768;SDS011;12064;50.890;5.424;2023-02-13T09:00:14;4.93;;;3.60;;
23768;SDS011;12064;50.890;5.424;2023-02-13T09:09:05;4.15;;;3.17;;
23768;SDS011;12064;50.890;5.424;2023-02-13T09:17:56;4.77;;;3.33;;
23768;SDS011;12064;50.890;5.424;2023-02-13T09:26:47;3.85;;;3.45;;
23768;SDS011;12064;50.890;5.424;2023-02-13T09:35:37;3.70;;;3.03;;
23768;SDS011;12064;50.890;5.424;2023-02-13T09:44:35;4.05;;;3.35;;
23768;SDS011;12064;50.890;5.424;2023-02-13T09:53:32;3.42;;;3.15;;
23768;SDS011;12064;50.890;5.424;2023-02-13T10:02:32;4.75;;;3.10;;
23768;SDS011;12064;50.890;5.424;2023-02-13T10:11:44;4.03;;;3.10;;
23768;SDS011;12064;50.890;5.424;2023-02-13T10:20:51;3.55;;;3.10;;
23768;SDS011;12064;50.890;5.424;2023-02-13T10:29:57;4.38;;;3.15;;
23768;SDS011;12064;50.890;5.424;2023-02-13T10:39:08;3.47;;;3.17;;
23768;SDS011;12064;50.890;5.424;2023-02-13T11:24:58;3.40;;;3.10;;
23768;SDS011;12064;50.890;5.424;2023-02-13T11:33:57;4.15;;;3.08;;
23768;SDS011;12064;50.890;5.424;2023-02-13T11:42:49;3.38;;;3.08;;
23768;SDS011;12064;50.890;5.424;2023-02-13T11:51:44;4.10;;;2.97;;
23768;SDS011;12064;50.890;5.424;2023-02-13T12:00:44;3.88;;;3.05;;
23768;SDS011;12064;50.890;5.424;2023-02-13T12:09:35;3.42;;;3.05;;
23768;SDS011;12064;50.890;5.424;2023-02-13T12:18:34;4.45;;;3.17;;
23768;SDS011;12064;50.890;5.424;2023-02-13T12:36:48;4.97;;;3.20;;
23768;SDS011;12064;50.890;5.424;2023-02-13T13:13:37;3.13;;;2.83;;
23768;SDS011;12064;50.890;5.424;2023-02-13T13:50:18;6.80;;;3.03;;
23768;SDS011;12064;50.890;5.424;2023-02-13T14:08:58;5.90;;;3.10;;
23768;SDS011;12064;50.890;5.424;2023-02-13T14:26:34;5.43;;;3.00;;
23768;SDS011;12064;50.890;5.424;2023-02-13T14:35:27;5.30;;;2.80;;
23768;SDS011;12064;50.890;5.424;2023-02-13T14:53:34;5.38;;;2.80;;
23768;SDS011;12064;50.890;5.424;2023-02-13T15:02:38;4.13;;;2.60;;
23768;SDS011;12064;50.890;5.424;2023-02-13T15:11:39;4.63;;;3.08;;
23768;SDS011;12064;50.890;5.424;2023-02-13T15:20:32;3.70;;;2.55;;
23768;SDS011;12064;50.890;5.424;2023-02-13T15:29:24;3.40;;;2.60;;
23768;SDS011;12064;50.890;5.424;2023-02-13T15:47:25;3.55;;;2.60;;
23768;SDS011;12064;50.890;5.424;2023-02-13T15:56:19;4.53;;;2.83;;
23768;SDS011;12064;50.890;5.424;2023-02-13T16:05:13;5.40;;;2.95;;
23768;SDS011;12064;50.890;5.424;2023-02-13T16:32:44;3.35;;;2.45;;
23768;SDS011;12064;50.890;5.424;2023-02-13T16:41:35;4.37;;;2.87;;
23768;SDS011;12064;50.890;5.424;2023-02-13T17:09:16;4.53;;;2.40;;
23768;SDS011;12064;50.890;5.424;2023-02-13T17:18:07;3.38;;;2.63;;
23768;SDS011;12064;50.890;5.424;2023-02-13T17:36:10;4.40;;;2.67;;
23768;SDS011;12064;50.890;5.424;2023-02-13T17:45:02;3.58;;;2.45;;
23768;SDS011;12064;50.890;5.424;2023-02-13T17:53:53;3.20;;;2.58;;
23768;SDS011;12064;50.890;5.424;2023-02-13T18:02:44;3.05;;;2.50;;
23768;SDS011;12064;50.890;5.424;2023-02-13T18:11:36;3.95;;;2.55;;
23768;SDS011;12064;50.890;5.424;2023-02-13T18:20:27;3.00;;;2.63;;
23768;SDS011;12064;50.890;5.424;2023-02-13T18:29:18;2.85;;;2.40;;
23768;SDS011;12064;50.890;5.424;2023-02-13T18:38:08;4.03;;;2.73;;
23768;SDS011;12064;50.890;5.424;2023-02-13T18:46:59;4.17;;;2.40;;
23768;SDS011;12064;50.890;5.424;2023-02-13T18:56:00;3.20;;;2.42;;
23768;SDS011;12064;50.890;5.424;2023-02-13T19:04:54;3.20;;;2.20;;
23768;SDS011;12064;50.890;5.424;2023-02-13T19:13:45;3.37;;;2.50;;
23768;SDS011;12064;50.890;5.424;2023-02-13T19:22:36;2.92;;;2.50;;
23768;SDS011;12064;50.890;5.424;2023-02-13T19:41:15;2.83;;;2.20;;
23768;SDS011;12064;50.890;5.424;2023-02-13T19:50:06;2.92;;;2.30;;
23768;SDS011;12064;50.890;5.424;2023-02-13T19:58:58;2.45;;;2.25;;
23768;SDS011;12064;50.890;5.424;2023-02-13T20:07:48;3.03;;;2.55;;
23768;SDS011;12064;50.890;5.424;2023-02-13T20:16:39;2.70;;;2.30;;
23768;SDS011;12064;50.890;5.424;2023-02-13T20:25:31;2.53;;;2.10;;
23768;SDS011;12064;50.890;5.424;2023-02-13T20:34:25;3.28;;;2.30;;
23768;SDS011;12064;50.890;5.424;2023-02-13T20:52:38;2.53;;;2.25;;
23768;SDS011;12064;50.890;5.424;2023-02-13T21:01:33;2.38;;;2.17;;
23768;SDS011;12064;50.890;5.424;2023-02-13T21:10:29;2.70;;;2.25;;
23768;SDS011;12064;50.890;5.424;2023-02-13T21:28:55;2.80;;;2.30;;
23768;SDS011;12064;50.890;5.424;2023-02-13T21:47:47;2.55;;;1.85;;
23768;SDS011;12064;50.890;5.424;2023-02-13T21:56:41;2.40;;;2.20;;
23768;SDS011;12064;50.890;5.424;2023-02-13T22:05:32;2.20;;;2.00;;
23768;SDS011;12064;50.890;5.424;2023-02-13T22:14:26;2.45;;;2.20;;
23768;SDS011;12064;50.890;5.424;2023-02-13T22:23:16;2.30;;;2.10;;
23768;SDS011;12064;50.890;5.424;2023-02-13T22:32:07;2.43;;;2.00;;
23768;SDS011;12064;50.890;5.424;2023-02-13T22:41:08;2.57;;;2.20;;
23768;SDS011;12064;50.890;5.424;2023-02-13T22:50:00;2.80;;;2.33;;
23768;SDS011;12064;50.890;5.424;2023-02-13T22:58:51;2.07;;;1.87;;
23768;SDS011;12064;50.890;5.424;2023-02-13T23:07:42;2.28;;;1.90;;
23768;SDS011;12064;50.890;5.424;2023-02-13T23:16:39;2.42;;;2.22;;
23768;SDS011;12064;50.890;5.424;2023-02-13T23:25:49;2.35;;;2.03;;
23768;SDS011;12064;50.890;5.424;2023-02-13T23:34:40;2.50;;;2.13;;
23768;SDS011;12064;50.890;5.424;2023-02-13T23:52:44;2.42;;;2.22;;
